Time;durP1;ratioP1;P1;durP2;ratioP2;P2;SDS_P1;SDS_P2;PMS_P1;PMS_P2;Temp;Humidity;BMP_temperature;BMP_pressure;BME280_temperature;BME280_humidity;BME280_pressure;Samples;Min_cycle;Max_cycle;Signal;HPM_P1;HPM_P2
2022/06/21 00:00:05;;;;;;;1033.57;973.08;;;;;;;15.88;57.02;100836.38;695269;28;47164;-67
2022/06/21 00:00:29;;;;;;;1014.53;955.35;;;;;;;15.85;57.73;100825.88;692965;28;114438;-66
2022/06/21 00:00:51;;;;;;;1003.55;945.10;;;;;;;15.88;57.47;100824.59;694448;28;67675;-67
2022/06/21 00:01:14;;;;;;;1030.82;970.55;;;;;;;15.87;57.31;100833.84;695569;28;43501;-66
2022/06/21 00:01:35;;;;;;;1055.05;992.83;;;;;;;15.85;57.01;100832.16;694466;28;69394;-66
2022/06/21 00:01:57;;;;;;;1056.60;994.25;;;;;;;15.84;57.34;100835.09;696526;28;11447;-66
2022/06/21 00:02:19;;;;;;;1069.57;999.90;;;;;;;15.84;57.37;100832.38;694028;28;69515;-67
2022/06/21 00:02:41;;;;;;;1048.25;986.58;;;;;;;15.83;57.32;100828.81;696050;28;22305;-67
2022/06/21 00:03:04;;;;;;;1015.53;956.05;;;;;;;15.84;57.16;100824.19;695703;28;46232;-68
2022/06/21 00:03:27;;;;;;;1069.22;999.90;;;;;;;15.83;57.02;100831.53;695135;28;21581;-68
2022/06/21 00:03:49;;;;;;;1071.25;999.90;;;;;;;15.83;57.57;100827.97;695189;28;45315;-67
2022/06/21 00:04:10;;;;;;;1082.30;999.90;;;;;;;15.81;57.37;100832.78;695877;28;46264;-66
2022/06/21 00:04:32;;;;;;;1081.80;999.90;;;;;;;15.79;57.52;100833.00;695808;28;22273;-66
2022/06/21 00:04:56;;;;;;;1080.13;999.90;;;;;;;15.81;57.42;100832.78;693914;28;45048;-66
2022/06/21 00:05:23;;;;;;;1066.97;999.90;;;;;;;15.80;57.26;100836.59;694316;28;90327;-66
2022/06/21 00:05:46;;;;;;;1069.00;999.90;;;;;;;15.77;57.54;100835.09;691945;28;137883;-67
2022/06/21 00:06:09;;;;;;;1056.25;993.80;;;;;;;15.78;57.67;100831.34;694845;28;69314;-66
2022/06/21 00:06:31;;;;;;;1061.07;998.17;;;;;;;15.74;57.53;100821.88;694633;28;67464;-68
2022/06/21 00:06:52;;;;;;;1070.88;999.90;;;;;;;15.78;57.25;100833.22;694775;28;44368;-71
2022/06/21 00:07:18;;;;;;;1067.65;999.90;;;;;;;15.78;57.51;100835.94;696449;28;21369;-66
2022/06/21 00:07:39;;;;;;;1053.45;991.72;;;;;;;15.77;57.56;100826.94;691946;28;137906;-67
2022/06/21 00:08:02;;;;;;;1067.47;999.90;;;;;;;15.76;57.22;100836.09;696174;28;23458;-67
2022/06/21 00:08:25;;;;;;;1055.28;992.67;;;;;;;15.78;57.43;100834.06;694520;28;66899;-66
2022/06/21 00:08:47;;;;;;;1041.45;980.03;;;;;;;15.72;57.75;100825.84;694131;28;69431;-66
2022/06/21 00:09:10;;;;;;;1037.45;976.53;;;;;;;15.77;57.35;100831.56;696663;28;22195;-68
2022/06/21 00:09:32;;;;;;;1052.07;990.00;;;;;;;15.75;57.34;100834.44;694346;28;92355;-67
2022/06/21 00:09:54;;;;;;;1071.05;999.90;;;;;;;15.77;57.75;100826.09;693169;28;45046;-66
2022/06/21 00:10:19;;;;;;;1077.38;999.90;;;;;;;15.76;57.34;100833.38;695343;28;46296;-69
2022/06/21 00:10:41;;;;;;;1078.13;999.90;;;;;;;15.77;57.48;100837.81;693394;28;92526;-67
2022/06/21 00:11:06;;;;;;;1079.32;999.90;;;;;;;15.78;57.33;100833.22;695224;28;68314;-67
2022/06/21 00:11:28;;;;;;;1085.63;999.90;;;;;;;15.78;57.54;100830.47;693742;28;90699;-67
2022/06/21 00:11:50;;;;;;;1068.70;999.90;;;;;;;15.79;57.52;100832.16;694265;28;67463;-67
2022/06/21 00:12:12;;;;;;;1050.35;988.50;;;;;;;15.77;57.84;100835.09;696667;28;22182;-66
2022/06/21 00:12:34;;;;;;;1048.50;986.78;;;;;;;15.75;57.66;100830.88;695130;28;45034;-67
2022/06/21 00:12:55;;;;;;;1067.07;999.90;;;;;;;15.77;57.72;100834.28;694991;28;46705;-66
2022/06/21 00:13:19;;;;;;;1073.35;999.90;;;;;;;15.75;57.65;100834.44;695091;28;46330;-67
2022/06/21 00:13:42;;;;;;;1074.28;999.90;;;;;;;15.75;57.45;100829.00;695375;28;42122;-67
2022/06/21 00:14:03;;;;;;;1067.70;999.90;;;;;;;15.76;57.38;100833.38;695113;28;67239;-66
2022/06/21 00:14:24;;;;;;;1069.93;999.90;;;;;;;15.75;57.81;100836.31;696537;28;22064;-67
2022/06/21 00:14:46;;;;;;;1085.72;999.90;;;;;;;15.75;57.83;100839.91;694882;28;23225;-67
2022/06/21 00:15:08;;;;;;;1090.72;999.90;;;;;;;15.76;57.80;100838.00;695655;28;22411;-67
2022/06/21 00:15:30;;;;;;;1088.13;999.90;;;;;;;15.76;57.75;100827.09;694944;28;69047;-66
2022/06/21 00:15:54;;;;;;;1074.47;999.90;;;;;;;15.75;57.83;100834.44;694760;28;44883;-66
2022/06/21 00:16:16;;;;;;;1071.28;999.90;;;;;;;15.74;57.74;100831.94;693933;28;92074;-67
2022/06/21 00:16:38;;;;;;;1058.93;996.42;;;;;;;15.76;57.78;100835.28;695899;28;23491;-67
2022/06/21 00:16:59;;;;;;;958.17;902.38;;;;;;;15.75;57.83;100831.72;694301;28;69318;-70
2022/06/21 00:17:21;;;;;;;931.47;877.50;;;;;;;15.74;57.90;100832.75;696193;28;22444;-66
2022/06/21 00:17:47;;;;;;;1010.80;951.85;;;;;;;15.76;57.63;100832.56;696277;28;17704;-67
2022/06/21 00:18:11;;;;;;;1021.85;962.33;;;;;;;15.72;57.85;100826.69;691979;28;138633;-66
2022/06/21 00:18:35;;;;;;;1020.67;961.28;;;;;;;15.74;57.88;100831.94;694984;28;69500;-67
2022/06/21 00:18:56;;;;;;;1021.20;961.60;;;;;;;15.74;57.58;100831.94;693691;28;93276;-66
2022/06/21 00:19:19;;;;;;;968.25;911.95;;;;;;;15.75;57.75;100831.72;696356;28;21415;-66
2022/06/21 00:19:43;;;;;;;1024.43;964.58;;;;;;;15.74;57.53;100835.50;693409;28;92143;-66
2022/06/21 00:20:05;;;;;;;962.65;906.80;;;;;;;15.72;57.75;100826.69;693938;28;92447;-67
2022/06/21 00:20:27;;;;;;;938.40;884.17;;;;;;;15.73;57.75;100830.25;695046;28;67473;-67
2022/06/21 00:20:49;;;;;;;968.78;912.63;;;;;;;15.73;57.51;100827.53;695890;28;22391;-68
2022/06/21 00:21:14;;;;;;;996.88;938.90;;;;;;;15.70;57.88;100826.06;695301;28;46327;-67
2022/06/21 00:21:36;;;;;;;971.78;915.45;;;;;;;15.68;57.96;100823.53;692919;28;115099;-67
2022/06/21 00:21:58;;;;;;;1016.60;957.17;;;;;;;15.72;58.15;100832.16;694792;28;69387;-66
2022/06/21 00:22:19;;;;;;;1017.10;957.58;;;;;;;15.71;57.94;100826.91;696171;28;23411;-66
2022/06/21 00:22:42;;;;;;;1068.00;999.90;;;;;;;15.74;57.77;100824.59;695573;28;46189;-67
2022/06/21 00:23:03;;;;;;;1072.35;999.90;;;;;;;15.74;57.84;100827.31;695612;28;44167;-66
2022/06/21 00:23:27;;;;;;;1075.68;999.90;;;;;;;15.74;57.73;100827.31;695975;28;22388;-69
2022/06/21 00:23:50;;;;;;;1083.95;999.90;;;;;;;15.75;58.07;100825.44;693441;28;92282;-70
2022/06/21 00:24:13;;;;;;;1023.92;962.88;;;;;;;15.76;57.87;100821.66;694773;28;69233;-66
2022/06/21 00:24:34;;;;;;;998.72;940.50;;;;;;;15.74;57.72;100816.44;694606;28;67494;-69
2022/06/21 00:24:56;;;;;;;972.30;915.73;;;;;;;15.74;57.64;100823.78;694451;28;46320;-67
2022/06/21 00:25:21;;;;;;;958.97;903.33;;;;;;;15.74;57.57;100819.16;695524;28;45265;-66
2022/06/21 00:25:46;;;;;;;1012.25;953.10;;;;;;;15.76;58.10;100821.66;693519;28;115945;-67
2022/06/21 00:26:09;;;;;;;1057.68;995.03;;;;;;;15.74;57.80;100819.16;693198;28;115121;-67
2022/06/21 00:26:31;;;;;;;1034.30;973.60;;;;;;;15.75;57.84;100829.00;694324;28;69436;-68
2022/06/21 00:26:53;;;;;;;1045.88;984.22;;;;;;;15.76;57.64;100814.31;695555;28;46302;-67
2022/06/21 00:27:16;;;;;;;981.20;923.95;;;;;;;15.76;57.70;100825.22;695391;28;46384;-66
2022/06/21 00:27:37;;;;;;;971.15;914.85;;;;;;;15.77;57.75;100829.66;694977;28;69435;-69
2022/06/21 00:27:58;;;;;;;995.65;937.72;;;;;;;15.77;57.83;100826.09;695882;28;22406;-67
2022/06/21 00:28:21;;;;;;;1035.93;975.05;;;;;;;15.77;57.72;100820.66;695615;28;22402;-68
2022/06/21 00:28:44;;;;;;;1065.45;999.90;;;;;;;15.76;57.66;100829.84;696128;28;14895;-67
2022/06/21 00:29:05;;;;;;;1077.95;999.90;;;;;;;15.75;57.66;100830.88;695452;28;44391;-67
2022/06/21 00:29:27;;;;;;;1069.97;999.90;;;;;;;15.74;57.67;100827.31;696282;28;22423;-66
2022/06/21 00:29:48;;;;;;;1069.13;999.90;;;;;;;15.74;57.87;100824.59;694124;28;46552;-67
2022/06/21 00:30:11;;;;;;;1068.78;999.90;;;;;;;15.73;58.08;100832.97;695790;28;22406;-67
2022/06/21 00:30:32;;;;;;;1043.22;981.15;;;;;;;15.71;58.05;100830.47;694476;28;67475;-67
2022/06/21 00:30:54;;;;;;;975.03;918.13;;;;;;;15.71;58.07;100827.75;696193;28;22409;-70
2022/06/21 00:31:20;;;;;;;1052.70;990.30;;;;;;;15.71;57.71;100833.19;695020;28;46315;-67
2022/06/21 00:31:43;;;;;;;1039.93;978.63;;;;;;;15.71;57.85;100827.75;692103;28;136269;-66
2022/06/21 00:32:05;;;;;;;1039.50;978.53;;;;;;;15.70;57.97;100828.78;693775;28;92118;-68
2022/06/21 00:32:27;;;;;;;1050.80;988.47;;;;;;;15.67;57.87;100827.31;696657;28;11726;-70
2022/06/21 00:32:52;;;;;;;1050.63;988.50;;;;;;;15.69;58.02;100824.41;696554;28;21552;-67
2022/06/21 00:33:16;;;;;;;1060.57;997.80;;;;;;;15.65;58.16;100825.84;691923;28;137686;-66
2022/06/21 00:33:37;;;;;;;1076.35;999.90;;;;;;;15.69;58.04;100824.41;694286;28;67475;-70
2022/06/21 00:34:01;;;;;;;1065.25;999.90;;;;;;;15.68;57.77;100820.81;696062;28;21562;-67
2022/06/21 00:34:24;;;;;;;1068.90;999.90;;;;;;;15.70;57.93;100822.50;693021;28;113562;-66
2022/06/21 00:34:45;;;;;;;1071.53;999.90;;;;;;;15.71;57.92;100826.91;696364;28;4156;-68
2022/06/21 00:35:11;;;;;;;1060.97;998.15;;;;;;;15.71;57.84;100822.28;694789;28;45249;-67
2022/06/21 00:35:32;;;;;;;1058.38;995.85;;;;;;;15.72;58.06;100823.97;692328;28;137949;-67
2022/06/21 00:36:05;;;;;;;1059.05;996.40;;;;;;;15.72;57.89;100829.44;696463;28;22410;-66
2022/06/21 00:36:28;;;;;;;1030.82;970.28;;;;;;;15.68;57.78;100820.00;691544;28;160527;-66
2022/06/21 00:36:50;;;;;;;1005.00;946.38;;;;;;;15.70;57.80;100823.31;693332;28;92227;-66
2022/06/21 00:37:14;;;;;;;1002.45;944.00;;;;;;;15.71;58.00;100837.81;695228;28;46307;-66
2022/06/21 00:37:36;;;;;;;934.10;880.08;;;;;;;15.70;57.88;100830.66;694242;28;92153;-67
2022/06/21 00:37:58;;;;;;;942.00;887.45;;;;;;;15.70;57.85;100827.94;695402;28;46511;-67
2022/06/21 00:38:27;;;;;;;925.55;872.15;;;;;;;15.71;57.68;100830.47;696725;28;16214;-68
2022/06/21 00:38:50;;;;;;;984.30;927.15;;;;;;;15.69;57.98;100832.56;691977;28;137604;-66
2022/06/21 00:39:14;;;;;;;998.88;940.67;;;;;;;15.71;58.18;100830.47;693921;28;93429;-66
2022/06/21 00:39:35;;;;;;;979.78;922.95;;;;;;;15.70;58.23;100826.06;694969;28;67223;-66
2022/06/21 00:39:56;;;;;;;969.28;913.17;;;;;;;15.70;58.27;100827.94;694202;28;43512;-66
2022/06/21 00:40:22;;;;;;;950.70;895.60;;;;;;;15.71;57.78;100829.63;697782;28;23483;-67
2022/06/21 00:40:44;;;;;;;991.58;934.03;;;;;;;15.72;58.14;100825.84;691906;28;138043;-67
2022/06/21 00:41:06;;;;;;;955.08;899.70;;;;;;;15.73;58.08;100835.69;696646;28;22392;-68
2022/06/21 00:41:36;;;;;;;1000.75;942.58;;;;;;;15.72;57.93;100828.56;695511;28;45251;-70
2022/06/21 00:42:04;;;;;;;988.47;931.00;;;;;;;15.73;57.86;100832.97;691872;28;137446;-66
2022/06/21 00:42:31;;;;;;;938.00;883.70;;;;;;;15.72;57.99;100834.00;691855;28;159171;-67
2022/06/21 00:42:56;;;;;;;921.70;868.40;;;;;;;15.71;58.15;100826.91;692225;28;138178;-66
2022/06/21 00:43:20;;;;;;;962.75;906.97;;;;;;;15.72;57.77;100826.69;690123;28;113670;-66
2022/06/21 00:43:45;;;;;;;903.10;851.10;;;;;;;15.73;58.22;100838.41;690575;28;115283;-67
2022/06/21 00:44:08;;;;;;;859.08;809.60;;;;;;;15.68;57.93;100826.25;690671;28;113932;-66
2022/06/21 00:44:36;;;;;;;884.85;833.80;;;;;;;15.73;58.07;100832.97;694154;28;14990;-66
2022/06/21 00:45:03;;;;;;;915.33;862.38;;;;;;;15.72;57.96;100834.88;688147;28;157584;-68
2022/06/21 00:45:31;;;;;;;908.33;855.88;;;;;;;15.71;57.97;100825.00;691263;28;161024;-66
2022/06/21 00:45:52;;;;;;;815.90;769.00;;;;;;;15.72;58.03;100832.16;692031;28;138500;-66
2022/06/21 00:46:31;;;;;;;821.30;774.15;;;;;;;15.73;57.74;100835.69;696058;28;21431;-66
2022/06/21 00:47:01;;;;;;;773.40;729.35;;;;;;;15.66;57.76;100816.66;691681;28;137881;-69
2022/06/21 00:47:25;;;;;;;798.70;752.72;;;;;;;15.72;57.89;100832.16;691739;28;137894;-66
2022/06/21 00:47:52;;;;;;;804.00;757.78;;;;;;;15.73;58.02;100830.25;694033;28;91739;-66
2022/06/21 00:48:17;;;;;;;761.42;718.20;;;;;;;15.73;58.07;100836.53;691717;28;136620;-67
2022/06/21 00:48:41;;;;;;;874.10;823.60;;;;;;;15.73;57.72;100831.06;693142;28;114855;-66
2022/06/21 00:49:03;;;;;;;835.10;787.00;;;;;;;15.74;57.84;100837.38;693853;28;92410;-67
2022/06/21 00:49:28;;;;;;;876.05;825.38;;;;;;;15.73;57.86;100830.25;695428;28;45397;-66
2022/06/21 00:49:52;;;;;;;867.63;817.38;;;;;;;15.74;58.20;100830.03;691780;28;114967;-68
2022/06/21 00:50:19;;;;;;;893.17;841.35;;;;;;;15.73;58.05;100836.53;693962;28;90457;-67
2022/06/21 00:50:44;;;;;;;890.97;839.40;;;;;;;15.73;58.32;100838.41;692089;28;137877;-67
2022/06/21 00:51:08;;;;;;;914.35;861.35;;;;;;;15.73;57.83;100831.06;692897;28;114908;-68
2022/06/21 00:51:33;;;;;;;956.72;901.20;;;;;;;15.72;58.05;100832.16;692979;28;115892;-67
2022/06/21 00:52:00;;;;;;;923.25;869.75;;;;;;;15.72;58.18;100831.28;693292;28;115776;-67
2022/06/21 00:52:24;;;;;;;939.85;885.22;;;;;;;15.69;57.83;100824.41;692200;28;138092;-66
2022/06/21 00:52:52;;;;;;;936.92;882.58;;;;;;;15.68;58.32;100828.97;693188;28;115213;-67
2022/06/21 00:53:19;;;;;;;960.70;904.92;;;;;;;15.67;58.28;100838.22;691559;28;138046;-67
2022/06/21 00:53:44;;;;;;;997.28;939.15;;;;;;;15.69;58.26;100832.56;692520;28;138120;-66
2022/06/21 00:54:10;;;;;;;1018.13;958.60;;;;;;;15.66;58.29;100832.97;693818;28;92175;-66
2022/06/21 00:54:36;;;;;;;1017.95;958.42;;;;;;;15.70;58.20;100830.66;692065;28;138005;-68
2022/06/21 00:55:02;;;;;;;981.78;924.72;;;;;;;15.70;58.00;100833.38;690590;28;157598;-66
2022/06/21 00:55:32;;;;;;;947.95;893.00;;;;;;;15.70;58.13;100836.94;692127;28;137186;-67
2022/06/21 00:55:56;;;;;;;911.25;858.55;;;;;;;15.67;57.92;100829.19;692335;28;138411;-67
2022/06/21 00:56:23;;;;;;;899.58;847.55;;;;;;;15.67;57.82;100826.47;693547;28;92505;-67
2022/06/21 00:56:51;;;;;;;905.33;852.95;;;;;;;15.67;58.24;100829.19;691385;28;136375;-69
2022/06/21 00:57:14;;;;;;;864.63;814.90;;;;;;;15.65;57.96;100834.84;689482;28;138972;-71
2022/06/21 00:57:41;;;;;;;742.63;700.83;;;;;;;15.65;58.18;100834.00;691544;28;92158;-69
2022/06/21 00:58:03;;;;;;;781.60;737.17;;;;;;;15.64;57.88;100826.88;689186;28;159189;-66
2022/06/21 00:58:27;;;;;;;586.28;554.95;;;;;;;15.65;58.29;100832.13;691909;28;69416;-66
2022/06/21 00:58:48;;;;;;;473.83;449.52;;;;;;;15.62;58.40;100826.25;692367;28;68432;-68
2022/06/21 00:59:22;;;;;;;608.28;576.30;;;;;;;15.62;58.33;100824.38;695374;28;22494;-67
2022/06/21 00:59:45;;;;;;;663.28;626.95;;;;;;;15.65;58.05;100829.41;691128;28;137695;-66
2022/06/21 01:00:29;;;;;;;654.58;618.97;;;;;;;15.65;58.15;100828.56;694283;28;69374;-67
2022/06/21 01:00:59;;;;;;;698.13;659.30;;;;;;;15.62;58.21;100827.09;692134;28;135742;-67
2022/06/21 01:01:22;;;;;;;782.65;738.20;;;;;;;15.65;57.95;100832.13;691592;28;137805;-67
2022/06/21 01:01:43;;;;;;;863.70;813.90;;;;;;;15.65;57.94;100823.94;694621;28;70128;-66
2022/06/21 01:02:12;;;;;;;820.35;773.30;;;;;;;15.65;58.14;100823.13;696038;28;22345;-66
2022/06/21 01:02:35;;;;;;;816.90;770.00;;;;;;;15.65;58.46;100828.56;691832;28;136242;-66
2022/06/21 01:02:58;;;;;;;739.60;697.95;;;;;;;15.61;58.38;100824.56;694671;28;69431;-67
2022/06/21 01:03:22;;;;;;;751.17;709.00;;;;;;;15.64;58.06;100829.59;693893;28;69298;-66
2022/06/21 01:03:47;;;;;;;701.55;663.10;;;;;;;15.64;58.21;100830.47;693372;28;92130;-66
2022/06/21 01:04:13;;;;;;;721.83;681.60;;;;;;;15.64;58.42;100829.59;693063;28;115080;-67
2022/06/21 01:04:36;;;;;;;641.95;607.22;;;;;;;15.63;58.51;100834.22;690324;28;138168;-67
2022/06/21 01:04:59;;;;;;;648.72;613.28;;;;;;;15.63;58.51;100826.06;691168;28;89270;-67
2022/06/21 01:05:22;;;;;;;616.40;583.72;;;;;;;15.63;58.40;100826.06;694047;28;69443;-66
2022/06/21 01:05:45;;;;;;;698.67;660.42;;;;;;;15.63;58.06;100826.06;692973;28;69405;-67
2022/06/21 01:06:08;;;;;;;765.78;722.63;;;;;;;15.64;58.15;100826.88;694544;28;45214;-67
2022/06/21 01:06:33;;;;;;;699.60;660.65;;;;;;;15.63;58.15;100828.78;692894;28;90729;-68
2022/06/21 01:06:56;;;;;;;811.65;765.58;;;;;;;15.63;58.43;100830.69;692554;28;100637;-68
2022/06/21 01:07:17;;;;;;;884.70;833.58;;;;;;;15.63;58.00;100827.94;693713;28;69435;-67
2022/06/21 01:07:38;;;;;;;887.08;836.03;;;;;;;15.62;58.39;100826.25;695676;28;22379;-66
2022/06/21 01:08:01;;;;;;;915.05;862.22;;;;;;;15.62;58.10;100831.72;696023;28;21537;-67
2022/06/21 01:08:25;;;;;;;977.97;920.97;;;;;;;15.60;58.07;100822.91;694048;28;69409;-67
2022/06/21 01:08:49;;;;;;;996.80;938.85;;;;;;;15.61;58.34;100830.03;694412;28;69967;-68
2022/06/21 01:09:15;;;;;;;1006.92;948.28;;;;;;;15.61;58.34;100830.03;693242;28;115147;-67
2022/06/21 01:09:40;;;;;;;846.17;797.70;;;;;;;15.61;58.40;100832.75;692529;28;115101;-68
2022/06/21 01:10:06;;;;;;;617.80;584.95;;;;;;;15.61;58.53;100827.31;692001;28;138107;-66
2022/06/21 01:10:30;;;;;;;641.65;607.22;;;;;;;15.60;58.31;100825.66;692202;28;138576;-66
2022/06/21 01:10:53;;;;;;;804.20;758.22;;;;;;;15.61;58.54;100827.31;694400;28;69357;-66
2022/06/21 01:11:20;;;;;;;954.35;898.95;;;;;;;15.61;58.36;100830.88;693743;28;92135;-66
2022/06/21 01:11:45;;;;;;;921.53;868.25;;;;;;;15.61;58.39;100824.56;692370;28;135926;-68
2022/06/21 01:12:10;;;;;;;886.15;835.05;;;;;;;15.58;58.06;100817.69;694054;28;92218;-69
2022/06/21 01:12:35;;;;;;;1036.28;975.53;;;;;;;15.61;58.18;100825.44;693084;28;114298;-66
2022/06/21 01:12:59;;;;;;;874.05;823.90;;;;;;;15.60;58.24;100831.09;692527;28;113543;-66
2022/06/21 01:13:23;;;;;;;729.13;688.47;;;;;;;15.59;58.28;100832.13;692835;28;115017;-69
2022/06/21 01:13:47;;;;;;;879.05;828.40;;;;;;;15.57;58.35;100826.88;692701;28;115251;-68
2022/06/21 01:14:09;;;;;;;786.50;741.75;;;;;;;15.57;58.58;100828.78;694333;28;68470;-68
2022/06/21 01:14:32;;;;;;;813.47;767.33;;;;;;;15.58;58.24;100835.88;694475;28;67490;-67
2022/06/21 01:14:58;;;;;;;977.35;920.53;;;;;;;15.54;58.35;100823.75;693687;28;58333;-67
2022/06/21 01:15:21;;;;;;;980.75;923.75;;;;;;;15.57;58.41;100835.06;692691;28;114884;-67
2022/06/21 01:15:46;;;;;;;1021.70;962.00;;;;;;;15.56;58.37;100843.44;695072;28;69321;-68
2022/06/21 01:16:07;;;;;;;1025.45;965.28;;;;;;;15.57;58.39;100843.22;693775;28;113545;-68
2022/06/21 01:16:30;;;;;;;1050.32;988.47;;;;;;;15.54;58.67;100840.91;696382;28;23709;-66
2022/06/21 01:16:52;;;;;;;1053.05;990.83;;;;;;;15.55;58.78;100844.47;694100;28;93034;-67
2022/06/21 01:17:15;;;;;;;1004.22;945.33;;;;;;;15.55;58.64;100844.47;696689;28;21556;-67
2022/06/21 01:17:37;;;;;;;975.15;918.42;;;;;;;15.50;58.37;100834.19;695086;28;69079;-69
2022/06/21 01:18:00;;;;;;;889.33;837.92;;;;;;;15.54;58.45;100849.06;696296;28;44380;-67
2022/06/21 01:18:23;;;;;;;902.95;850.83;;;;;;;15.52;58.72;100839.44;694123;28;90861;-66
2022/06/21 01:18:46;;;;;;;887.42;836.35;;;;;;;15.50;58.44;100835.06;695033;28;67400;-67
2022/06/21 01:19:12;;;;;;;936.20;882.00;;;;;;;15.49;58.64;100836.09;695492;28;67524;-66
2022/06/21 01:19:37;;;;;;;843.10;794.85;;;;;;;15.52;58.35;100848.47;692682;28;138632;-68
2022/06/21 01:20:01;;;;;;;831.65;784.17;;;;;;;15.51;58.74;100841.31;690810;28;157920;-68
2022/06/21 01:20:26;;;;;;;826.15;779.30;;;;;;;15.53;58.77;100849.28;694310;28;92324;-69
2022/06/21 01:20:51;;;;;;;867.45;817.60;;;;;;;15.52;58.89;100848.47;693734;28;113570;-67
2022/06/21 01:21:15;;;;;;;801.95;756.38;;;;;;;15.52;58.80;100844.88;693634;28;114682;-69
2022/06/21 01:21:38;;;;;;;558.45;529.10;;;;;;;15.52;58.61;100844.88;693484;28;92101;-69
2022/06/21 01:22:02;;;;;;;471.92;447.80;;;;;;;15.46;58.62;100833.78;694835;28;69465;-69
2022/06/21 01:22:30;;;;;;;553.00;523.45;;;;;;;15.53;58.47;100850.09;694410;28;90689;-68
2022/06/21 01:22:57;;;;;;;940.10;885.67;;;;;;;15.54;58.54;100846.34;692604;28;138837;-69
2022/06/21 01:23:30;;;;;;;838.37;790.23;;;;;;;15.52;58.41;100839.44;688059;28;137657;-69
2022/06/21 01:23:58;;;;;;;796.80;751.40;;;;;;;15.53;58.58;100839.22;688519;28;137523;-68
2022/06/21 01:24:23;;;;;;;812.08;765.83;;;;;;;15.52;58.56;100843.00;688862;28;160908;-69
2022/06/21 01:24:50;;;;;;;713.83;674.53;;;;;;;15.51;58.79;100844.03;689535;28;138082;-69
2022/06/21 01:25:31;;;;;;;790.63;745.75;;;;;;;15.48;58.56;100844.47;691281;28;136227;-69
2022/06/21 01:25:57;;;;;;;842.63;794.17;;;;;;;15.50;58.54;100847.81;692193;28;137919;-69
2022/06/21 01:26:32;;;;;;;832.13;784.65;;;;;;;15.51;58.88;100849.50;692278;28;137275;-69
2022/06/21 01:26:56;;;;;;;612.17;578.75;;;;;;;15.47;58.73;100840.09;691142;28;160644;-68
2022/06/21 01:27:18;;;;;;;813.70;767.35;;;;;;;15.51;58.97;100846.78;692911;28;113930;-69
2022/06/21 01:27:39;;;;;;;906.33;854.13;;;;;;;15.52;58.67;100843.00;696296;28;23468;-67
2022/06/21 01:28:01;;;;;;;798.80;753.63;;;;;;;15.54;58.66;100848.25;696292;28;44381;-69
2022/06/21 01:28:23;;;;;;;751.50;709.28;;;;;;;15.54;58.82;100845.53;696139;28;23512;-69
2022/06/21 01:28:44;;;;;;;838.53;790.42;;;;;;;15.55;58.62;100850.75;694674;28;69432;-69
2022/06/21 01:29:07;;;;;;;760.17;717.67;;;;;;;15.55;59.02;100848.03;695847;28;46483;-70
2022/06/21 01:29:30;;;;;;;779.00;735.22;;;;;;;15.54;58.71;100846.34;695779;28;46395;-69
2022/06/21 01:29:53;;;;;;;864.33;814.63;;;;;;;15.55;58.97;100845.31;692882;28;92294;-69
2022/06/21 01:30:15;;;;;;;878.38;827.70;;;;;;;15.55;58.88;100841.75;695554;28;67426;-68
2022/06/21 01:30:37;;;;;;;854.03;805.05;;;;;;;15.55;58.66;100841.75;696715;28;22402;-68
2022/06/21 01:30:58;;;;;;;804.67;758.83;;;;;;;15.56;58.92;100843.44;696124;28;46267;-69
2022/06/21 01:31:20;;;;;;;845.50;797.13;;;;;;;15.55;58.59;100844.47;695496;28;45067;-69
2022/06/21 01:31:47;;;;;;;726.92;686.58;;;;;;;15.53;58.82;100833.78;695027;28;44473;-68
2022/06/21 01:32:08;;;;;;;710.47;671.55;;;;;;;15.54;58.66;100843.63;692586;28;137969;-68
2022/06/21 01:32:30;;;;;;;774.35;730.70;;;;;;;15.54;58.60;100842.81;696231;28;21539;-69
2022/06/21 01:32:52;;;;;;;718.95;679.33;;;;;;;15.53;58.90;100831.06;694791;28;69352;-68
2022/06/21 01:33:16;;;;;;;733.78;693.08;;;;;;;15.53;58.59;100831.06;695639;28;46451;-69
2022/06/21 01:33:40;;;;;;;661.33;626.08;;;;;;;15.53;58.88;100841.94;694277;28;92802;-67
2022/06/21 01:34:02;;;;;;;763.47;720.67;;;;;;;15.50;58.89;100836.91;695137;28;69420;-68
2022/06/21 01:34:25;;;;;;;816.38;769.80;;;;;;;15.52;58.78;100845.72;695514;28;46355;-68
2022/06/21 01:34:46;;;;;;;864.22;814.55;;;;;;;15.52;58.83;100839.44;694122;28;69828;-69
2022/06/21 01:35:10;;;;;;;965.80;909.73;;;;;;;15.50;58.83;100837.78;695672;28;46345;-67
2022/06/21 01:35:35;;;;;;;988.42;931.10;;;;;;;15.50;59.06;100839.63;693471;28;113631;-69
2022/06/21 01:36:00;;;;;;;1013.65;954.40;;;;;;;15.50;59.00;100835.06;693467;28;113800;-68
2022/06/21 01:36:25;;;;;;;1061.93;998.67;;;;;;;15.50;58.90;100831.47;692514;28;138058;-68
2022/06/21 01:36:47;;;;;;;1058.95;995.78;;;;;;;15.50;59.09;100834.19;693779;28;92209;-69
2022/06/21 01:37:11;;;;;;;1046.38;984.55;;;;;;;15.49;58.93;100836.09;694406;28;69122;-68
2022/06/21 01:37:34;;;;;;;1041.05;980.05;;;;;;;15.49;59.21;100832.53;694638;28;69439;-69
2022/06/21 01:37:56;;;;;;;1030.13;969.97;;;;;;;15.50;59.13;100831.47;695442;28;69400;-67
2022/06/21 01:38:19;;;;;;;1031.53;971.13;;;;;;;15.49;59.09;100822.47;695134;28;45245;-69
2022/06/21 01:38:43;;;;;;;1003.88;945.35;;;;;;;15.46;58.96;100827.50;694947;28;69278;-69
2022/06/21 01:39:07;;;;;;;959.72;904.20;;;;;;;15.49;59.15;100830.66;694556;28;90734;-69
2022/06/21 01:39:34;;;;;;;981.97;925.03;;;;;;;15.48;59.27;100834.41;694102;28;90331;-69
2022/06/21 01:40:00;;;;;;;978.53;921.80;;;;;;;15.48;59.09;100833.56;690878;28;160878;-69
2022/06/21 01:40:25;;;;;;;1014.22;955.03;;;;;;;15.48;59.37;100823.50;692258;28;137944;-69
2022/06/21 01:40:49;;;;;;;1041.72;980.13;;;;;;;15.48;59.28;100831.69;693216;28;115954;-69
2022/06/21 01:41:14;;;;;;;1054.93;992.20;;;;;;;15.50;58.98;100843.22;694623;28;90317;-67
2022/06/21 01:41:41;;;;;;;1038.15;977.22;;;;;;;15.48;59.21;100844.47;693470;28;115089;-69
2022/06/21 01:42:04;;;;;;;1063.50;999.63;;;;;;;15.48;59.33;100831.69;692255;28;136905;-69
2022/06/21 01:42:29;;;;;;;1069.00;999.90;;;;;;;15.44;58.93;100827.72;694175;28;90810;-69
2022/06/21 01:42:54;;;;;;;1068.05;999.90;;;;;;;15.49;59.21;100840.69;694132;28;90766;-69
2022/06/21 01:43:18;;;;;;;1058.28;995.17;;;;;;;15.50;59.32;100845.09;692889;28;137931;-69
2022/06/21 01:43:43;;;;;;;1062.25;998.55;;;;;;;15.50;59.25;100851.38;694033;28;90714;-68
2022/06/21 01:44:07;;;;;;;1045.10;983.35;;;;;;;15.49;59.01;100844.25;693630;28;115352;-68
2022/06/21 01:44:31;;;;;;;1046.63;984.35;;;;;;;15.49;59.11;100844.25;693118;28;114896;-69
2022/06/21 01:44:57;;;;;;;1031.00;970.00;;;;;;;15.50;59.22;100845.09;693221;28;92172;-69
2022/06/21 01:45:22;;;;;;;1052.30;990.03;;;;;;;15.50;59.37;100843.22;692175;28;137836;-69
2022/06/21 01:45:46;;;;;;;1037.07;976.03;;;;;;;15.51;59.11;100844.03;693340;28;114789;-68
2022/06/21 01:46:12;;;;;;;982.15;925.15;;;;;;;15.50;59.12;100843.22;694547;28;91210;-69
2022/06/21 01:46:33;;;;;;;871.30;821.63;;;;;;;15.50;59.17;100839.63;692497;28;138713;-68
2022/06/21 01:46:55;;;;;;;988.55;931.22;;;;;;;15.52;59.25;100845.72;695930;28;22465;-67